Time;durP1;ratioP1;P1;durP2;ratioP2;P2;SDS_P1;SDS_P2;PMS_P1;PMS_P2;Temp;Humidity;BMP_temperature;BMP_pressure;BME280_temperature;BME280_humidity;BME280_pressure;Samples;Min_cycle;Max_cycle;Signal;HPM_P1;HPM_P2
2023/01/06 00:01:15;;;;;;;38.75;19.95;;;9.20;95.90;;;;;;5053501;28;20647;-48
2023/01/06 00:03:40;;;;;;;45.08;24.08;;;9.20;95.90;;;;;;5050364;28;20026;-47
2023/01/06 00:06:11;;;;;;;36.63;21.92;;;9.20;95.80;;;;;;5032851;28;20064;-48
2023/01/06 00:08:39;;;;;;;41.10;21.67;;;9.20;95.90;;;;;;5035116;28;20029;-50
2023/01/06 00:11:12;;;;;;;44.50;22.75;;;9.20;95.90;;;;;;5033636;28;20532;-51
2023/01/06 00:13:40;;;;;;;39.83;20.25;;;9.20;95.90;;;;;;5027998;28;20025;-51
2023/01/06 00:16:24;;;;;;;39.38;21.08;;;9.20;95.90;;;;;;5034110;28;20071;-49
2023/01/06 00:18:56;;;;;;;39.42;21.50;;;9.20;95.90;;;;;;5043442;28;20041;-50
2023/01/06 00:21:23;;;;;;;38.53;21.63;;;9.20;95.90;;;;;;5043985;28;20029;-47
2023/01/06 00:23:50;;;;;;;42.13;21.65;;;9.30;95.90;;;;;;5032346;28;20113;-48
2023/01/06 00:26:17;;;;;;;43.80;21.55;;;9.20;95.90;;;;;;5022878;28;20038;-54
2023/01/06 00:28:44;;;;;;;45.53;22.88;;;9.30;95.90;;;;;;5032426;28;20025;-62
2023/01/06 00:31:13;;;;;;;46.55;24.10;;;9.30;95.90;;;;;;5017171;28;20120;-57
2023/01/06 00:33:41;;;;;;;49.70;24.65;;;9.30;95.90;;;;;;5014291;28;20029;-55
2023/01/06 00:36:09;;;;;;;47.38;24.27;;;9.30;96.00;;;;;;5026140;28;20039;-54
2023/01/06 00:38:40;;;;;;;56.80;25.58;;;9.30;95.90;;;;;;5033128;28;20088;-54
2023/01/06 00:42:02;;;;;;;60.25;24.98;;;9.30;95.90;;;;;;5033077;28;20068;-51
2023/01/06 00:43:55;;;;;;;54.40;26.42;;;9.40;95.90;;;;;;5031291;28;20043;-49
2023/01/06 00:46:25;;;;;;;56.17;25.63;;;9.30;96.00;;;;;;5012790;28;20030;-48
2023/01/06 00:48:52;;;;;;;49.88;26.83;;;9.40;96.00;;;;;;5025782;28;20013;-49
2023/01/06 00:51:19;;;;;;;55.30;26.90;;;9.40;96.00;;;;;;5018847;28;20357;-49
2023/01/06 00:53:48;;;;;;;48.28;26.00;;;9.30;95.90;;;;;;5023061;28;20071;-48
2023/01/06 00:56:17;;;;;;;53.58;26.38;;;9.40;96.00;;;;;;5027360;28;20744;-49
2023/01/06 00:58:43;;;;;;;53.15;27.42;;;9.40;96.00;;;;;;5030042;28;20425;-49
2023/01/06 01:01:16;;;;;;;54.30;27.15;;;9.40;96.00;;;;;;5049553;28;20410;-52
2023/01/06 01:03:45;;;;;;;66.00;29.52;;;9.40;96.00;;;;;;5029657;28;20057;-49
2023/01/06 01:06:12;;;;;;;59.03;28.37;;;9.40;96.00;;;;;;5037058;28;20126;-55
2023/01/06 01:08:41;;;;;;;61.35;28.92;;;9.40;96.00;;;;;;5069778;28;20354;-63
2023/01/06 01:12:08;;;;;;;56.45;28.35;;;9.40;96.00;;;;;;5049356;28;20028;-65
2023/01/06 01:13:55;;;;;;;50.40;27.63;;;9.40;96.00;;;;;;5048596;28;20041;-63
2023/01/06 01:16:25;;;;;;;53.13;25.48;;;9.40;96.00;;;;;;5047006;28;20347;-64
2023/01/06 01:18:52;;;;;;;51.22;26.40;;;9.40;96.00;;;;;;5044824;28;20108;-63
2023/01/06 01:21:19;;;;;;;47.92;26.73;;;9.50;96.00;;;;;;5029777;28;20402;-59
2023/01/06 01:23:46;;;;;;;50.08;26.23;;;9.40;96.00;;;;;;5029659;28;20356;-55
2023/01/06 01:26:13;;;;;;;49.17;25.30;;;9.40;96.00;;;;;;5029887;28;20026;-56
2023/01/06 01:28:40;;;;;;;48.25;26.48;;;9.50;96.10;;;;;;5041590;28;20100;-56
2023/01/06 01:31:07;;;;;;;44.25;25.20;;;9.50;96.10;;;;;;5048737;28;20033;-56
2023/01/06 01:33:38;;;;;;;53.13;27.08;;;9.50;96.10;;;;;;5041130;28;20021;-56
2023/01/06 01:36:07;;;;;;;55.10;28.05;;;9.50;96.00;;;;;;5047166;28;20025;-54
2023/01/06 01:38:34;;;;;;;55.03;26.33;;;9.50;96.10;;;;;;5049475;28;20029;-53
2023/01/06 01:41:02;;;;;;;51.03;24.98;;;9.50;96.10;;;;;;5039096;28;20120;-52
2023/01/06 01:43:47;;;;;;;45.85;24.63;;;9.50;96.10;;;;;;5048694;28;20562;-53
2023/01/06 01:46:37;;;;;;;44.97;25.13;;;9.50;96.10;;;;;;5048511;28;20044;-52
2023/01/06 01:49:13;;;;;;;45.90;24.95;;;9.50;96.10;;;;;;5047507;28;20040;-51
2023/01/06 01:51:42;;;;;;;45.38;23.98;;;9.50;96.10;;;;;;5061516;28;20041;-50
2023/01/06 01:54:13;;;;;;;50.33;24.55;;;9.60;96.10;;;;;;5028042;28;20463;-51
2023/01/06 01:56:45;;;;;;;45.72;22.58;;;9.60;96.10;;;;;;5046316;28;20121;-51
2023/01/06 01:59:21;;;;;;;42.15;23.50;;;9.50;96.10;;;;;;5028598;28;20390;-50
2023/01/06 02:01:49;;;;;;;38.05;23.60;;;9.50;96.10;;;;;;5029120;28;20017;-47
2023/01/06 02:04:17;;;;;;;46.03;21.33;;;9.60;96.10;;;;;;5028955;28;20022;-49
2023/01/06 02:06:49;;;;;;;41.03;21.90;;;9.50;96.10;;;;;;5028731;28;20499;-49
2023/01/06 02:09:27;;;;;;;40.28;23.60;;;9.60;96.10;;;;;;5042532;28;20068;-48
2023/01/06 02:11:56;;;;;;;39.78;23.13;;;9.60;96.10;;;;;;5037311;28;20459;-55
2023/01/06 02:14:23;;;;;;;37.40;19.88;;;9.60;96.10;;;;;;5020370;28;20053;-59
2023/01/06 02:17:04;;;;;;;41.58;22.30;;;9.60;96.10;;;;;;5035256;28;20038;-61
2023/01/06 02:19:48;;;;;;;41.53;22.27;;;9.60;96.10;;;;;;5035014;28;20026;-61
2023/01/06 02:22:52;;;;;;;39.08;21.92;;;9.60;96.10;;;;;;5031883;28;20029;-61
2023/01/06 02:25:47;;;;;;;40.15;21.50;;;9.60;96.10;;;;;;5033060;28;20129;-57
2023/01/06 02:28:40;;;;;;;42.35;21.40;;;9.60;96.10;;;;;;5025904;28;20044;-60
2023/01/06 02:31:43;;;;;;;39.55;22.27;;;9.70;96.20;;;;;;5035570;28;20034;-59
2023/01/06 02:34:48;;;;;;;43.05;21.60;;;9.70;96.20;;;;;;5033141;28;20036;-57
2023/01/06 02:37:19;;;;;;;40.15;23.05;;;9.70;96.20;;;;;;5034020;28;20061;-55
2023/01/06 02:40:21;;;;;;;49.78;23.85;;;9.70;96.20;;;;;;5034139;28;20026;-56
2023/01/06 02:43:24;;;;;;;48.05;25.15;;;9.70;96.20;;;;;;5032476;28;20402;-54
2023/01/06 02:46:27;;;;;;;47.75;25.60;;;9.70;96.10;;;;;;5035981;28;20744;-50
2023/01/06 02:49:38;;;;;;;48.35;25.45;;;9.70;96.10;;;;;;5036026;28;20057;-50
2023/01/06 02:52:39;;;;;;;49.03;26.38;;;9.70;96.20;;;;;;5025576;28;20041;-52
2023/01/06 02:55:15;;;;;;;56.70;28.40;;;9.70;96.10;;;;;;5030779;28;20052;-50
2023/01/06 02:58:11;;;;;;;51.33;25.83;;;9.70;96.10;;;;;;5034544;28;20044;-50
2023/01/06 03:01:03;;;;;;;48.10;26.05;;;9.70;96.10;;;;;;5032584;28;20382;-48
2023/01/06 03:03:33;;;;;;;51.50;26.63;;;9.70;96.10;;;;;;5014038;28;20459;-50
2023/01/06 03:06:05;;;;;;;;;;;9.70;96.10;;;;;;5019005;28;20140;-51
2023/01/06 03:08:33;;;;;;;45.42;25.80;;;9.70;96.10;;;;;;5031082;28;19916;-50
2023/01/06 03:11:01;;;;;;;44.35;28.45;;;9.80;96.10;;;;;;5043936;28;20035;-46
2023/01/06 03:13:53;;;;;;;49.05;26.40;;;9.80;96.10;;;;;;5022489;28;20037;-51
2023/01/06 03:16:21;;;;;;;42.88;26.02;;;9.70;96.10;;;;;;5032760;28;20022;-46
2023/01/06 03:18:52;;;;;;;42.10;25.77;;;9.70;96.10;;;;;;5064474;28;20124;-49
2023/01/06 03:21:25;;;;;;;45.70;24.83;;;9.70;96.00;;;;;;5033853;28;20025;-47
2023/01/06 03:23:52;;;;;;;45.53;23.92;;;9.70;96.00;;;;;;5029048;28;20720;-48
2023/01/06 03:26:19;;;;;;;39.90;23.23;;;9.70;96.00;;;;;;5029584;28;20033;-48
2023/01/06 03:28:46;;;;;;;36.08;24.58;;;9.60;96.00;;;;;;5034517;28;20018;-47
2023/01/06 03:31:23;;;;;;;34.83;22.13;;;9.70;96.00;;;;;;5029179;28;20040;-49
2023/01/06 03:34:21;;;;;;;42.17;23.08;;;9.70;96.00;;;;;;5013117;28;20037;-45
2023/01/06 03:37:11;;;;;;;39.25;21.13;;;9.60;96.00;;;;;;5023933;28;20037;-45
2023/01/06 03:39:58;;;;;;;35.72;22.05;;;9.70;96.00;;;;;;5014317;28;20352;-47
2023/01/06 03:45:35;;;;;;;36.65;21.40;;;9.60;96.00;;;;;;5014476;28;20176;-46
2023/01/06 03:48:24;;;;;;;38.30;21.20;;;9.70;96.00;;;;;;5013994;28;20111;-50
2023/01/06 03:51:08;;;;;;;36.13;20.50;;;9.70;95.90;;;;;;5020845;28;20792;-44
2023/01/06 03:54:24;;;;;;;35.83;19.85;;;9.60;95.90;;;;;;5033568;28;20083;-47
2023/01/06 03:57:08;;;;;;;26.05;18.50;;;9.60;95.80;;;;;;5023063;28;20057;-48
2023/01/06 03:59:45;;;;;;;33.92;18.98;;;9.60;95.90;;;;;;5019002;28;20077;-45
2023/01/06 04:02:12;;;;;;;29.00;17.45;;;9.70;95.80;;;;;;5019176;28;20022;-47
2023/01/06 04:04:39;;;;;;;27.52;18.30;;;9.70;95.80;;;;;;5017066;28;20029;-47
2023/01/06 04:07:07;;;;;;;24.92;17.77;;;9.70;95.70;;;;;;5034082;28;20030;-46
2023/01/06 04:09:34;;;;;;;26.77;17.55;;;9.70;95.70;;;;;;5033655;28;20029;-46
2023/01/06 04:14:46;;;;;;;23.20;17.70;;;9.70;95.60;;;;;;5031885;28;20109;-44
2023/01/06 04:17:13;;;;;;;25.85;16.48;;;9.70;95.60;;;;;;5032551;28;20021;-47
2023/01/06 04:19:40;;;;;;;23.23;14.45;;;9.70;95.60;;;;;;5022254;28;20030;-45
2023/01/06 04:22:07;;;;;;;23.45;15.02;;;9.70;95.60;;;;;;5013726;28;20373;-45
2023/01/06 04:24:33;;;;;;;24.88;14.20;;;9.70;95.50;;;;;;5013027;28;20033;-44
2023/01/06 04:27:00;;;;;;;21.52;13.15;;;9.70;95.40;;;;;;5030759;28;20435;-46
2023/01/06 04:29:29;;;;;;;17.25;13.43;;;9.70;95.40;;;;;;5027542;28;20026;-47
2023/01/06 04:31:56;;;;;;;21.73;13.13;;;9.70;95.30;;;;;;5013239;28;20022;-46
2023/01/06 04:34:21;;;;;;;22.13;12.77;;;9.70;95.20;;;;;;5013035;28;20264;-44
2023/01/06 04:36:47;;;;;;;17.65;13.40;;;9.70;95.10;;;;;;5013034;28;20034;-45
2023/01/06 04:39:14;;;;;;;15.32;11.80;;;9.70;95.10;;;;;;5045170;28;20033;-46
2023/01/06 04:41:41;;;;;;;18.70;11.63;;;9.70;95.10;;;;;;5031093;28;20036;-45
2023/01/06 04:44:07;;;;;;;18.52;11.82;;;9.70;95.00;;;;;;5018990;28;20037;-47
2023/01/06 04:46:33;;;;;;;14.40;10.48;;;9.70;95.00;;;;;;5012904;28;20052;-47
2023/01/06 04:49:05;;;;;;;16.30;11.48;;;9.70;95.00;;;;;;5013182;28;20022;-46
2023/01/06 04:51:32;;;;;;;17.13;10.73;;;9.70;94.90;;;;;;5013029;28;20037;-43
2023/01/06 04:53:59;;;;;;;13.30;10.00;;;9.70;94.80;;;;;;5014791;28;20038;-48
2023/01/06 04:56:25;;;;;;;15.07;9.52;;;9.70;94.70;;;;;;5032316;28;20017;-48
2023/01/06 04:58:57;;;;;;;17.08;10.13;;;9.70;94.70;;;;;;5023249;28;20088;-45
2023/01/06 05:01:25;;;;;;;13.02;10.10;;;9.70;94.60;;;;;;5022474;28;20504;-45
2023/01/06 05:03:52;;;;;;;14.68;9.48;;;9.80;94.50;;;;;;5029199;28;20033;-43
2023/01/06 05:06:20;;;;;;;16.63;10.43;;;9.80;94.40;;;;;;5020541;28;20049;-45
2023/01/06 05:08:47;;;;;;;18.05;10.52;;;9.80;94.30;;;;;;5012605;28;20317;-44
2023/01/06 05:11:31;;;;;;;13.32;9.80;;;9.80;94.30;;;;;;5022150;28;20042;-44
2023/01/06 05:13:58;;;;;;;15.88;9.73;;;9.80;94.20;;;;;;5028372;28;20101;-44
2023/01/06 05:16:43;;;;;;;14.85;10.65;;;9.70;94.20;;;;;;5012874;28;20053;-46
2023/01/06 05:19:08;;;;;;;14.93;10.77;;;9.80;94.10;;;;;;5012421;28;20140;-46
2023/01/06 05:21:34;;;;;;;13.57;11.82;;;9.80;94.20;;;;;;5012456;28;20113;-45
2023/01/06 05:24:01;;;;;;;18.73;12.20;;;9.70;94.10;;;;;;5012296;28;20486;-48
2023/01/06 05:26:28;;;;;;;14.25;10.07;;;9.80;94.10;;;;;;5031196;28;20032;-45
2023/01/06 05:28:55;;;;;;;11.77;9.63;;;9.70;94.00;;;;;;5032229;28;20034;-46
2023/01/06 05:31:22;;;;;;;18.17;11.00;;;9.70;94.10;;;;;;5030047;28;20056;-47
2023/01/06 05:33:49;;;;;;;11.98;10.18;;;9.70;94.10;;;;;;5032079;28;20105;-45
2023/01/06 05:36:17;;;;;;;15.35;10.07;;;9.70;94.00;;;;;;5022704;28;20034;-46
2023/01/06 05:38:49;;;;;;;13.18;10.40;;;9.70;94.10;;;;;;5011691;28;20099;-45
2023/01/06 05:41:16;;;;;;;14.68;10.52;;;9.80;94.00;;;;;;5026709;28;20065;-44
2023/01/06 05:43:50;;;;;;;16.25;10.23;;;9.70;94.00;;;;;;5030999;28;20036;-47
2023/01/06 05:46:15;;;;;;;12.07;9.60;;;9.70;93.90;;;;;;5013499;28;20351;-46
2023/01/06 05:48:42;;;;;;;18.33;10.40;;;9.70;93.80;;;;;;5016150;28;20032;-46
2023/01/06 05:51:12;;;;;;;15.05;10.75;;;9.70;93.80;;;;;;5015957;28;20410;-43
2023/01/06 05:53:41;;;;;;;15.32;11.27;;;9.70;93.80;;;;;;5024842;28;20120;-48
2023/01/06 05:56:11;;;;;;;15.90;11.80;;;9.70;93.70;;;;;;5026169;28;20112;-48
2023/01/06 05:58:41;;;;;;;13.02;11.48;;;9.80;93.70;;;;;;5034442;28;20099;-44
2023/01/06 06:01:19;;;;;;;17.08;12.20;;;9.80;93.60;;;;;;5026362;28;20069;-44
2023/01/06 06:03:47;;;;;;;16.58;12.68;;;9.80;93.60;;;;;;5015768;28;20436;-45
2023/01/06 06:06:13;;;;;;;16.27;14.23;;;9.80;93.50;;;;;;5016022;28;20109;-47
2023/01/06 06:08:40;;;;;;;15.93;12.57;;;9.80;93.40;;;;;;5015626;28;20108;-46
2023/01/06 06:11:12;;;;;;;22.10;14.13;;;9.80;93.30;;;;;;5023174;28;20041;-43
2023/01/06 06:13:44;;;;;;;14.18;12.77;;;9.80;93.20;;;;;;5034747;28;20029;-43
2023/01/06 06:16:13;;;;;;;13.77;12.30;;;9.80;93.20;;;;;;5033363;28;20367;-44
2023/01/06 06:18:44;;;;;;;15.90;13.15;;;9.80;93.10;;;;;;5030191;28;20351;-45
2023/01/06 06:21:13;;;;;;;17.15;12.88;;;9.90;93.00;;;;;;5032530;28;20504;-44
2023/01/06 06:23:42;;;;;;;16.38;13.90;;;9.90;92.80;;;;;;5031037;28;20068;-44
2023/01/06 06:26:10;;;;;;;15.98;14.00;;;9.90;92.70;;;;;;5031888;28;20436;-44
2023/01/06 06:28:41;;;;;;;14.15;12.75;;;9.90;92.70;;;;;;5015252;28;20030;-48
2023/01/06 06:31:27;;;;;;;14.65;13.15;;;9.90;92.80;;;;;;5020893;28;20087;-45
2023/01/06 06:33:56;;;;;;;17.67;13.95;;;9.90;92.80;;;;;;5033336;28;20038;-46
2023/01/06 06:36:24;;;;;;;17.63;13.60;;;9.90;92.80;;;;;;5034461;28;20405;-43
2023/01/06 06:38:51;;;;;;;14.35;12.95;;;9.90;92.80;;;;;;5030276;28;20486;-45
2023/01/06 06:41:20;;;;;;;15.25;12.10;;;9.90;92.70;;;;;;5020934;28;20413;-43
2023/01/06 06:43:49;;;;;;;18.88;13.30;;;9.90;92.70;;;;;;5034467;28;20042;-45
2023/01/06 06:46:16;;;;;;;14.52;13.02;;;9.90;92.80;;;;;;5034400;28;20451;-56
2023/01/06 06:48:46;;;;;;;18.60;13.20;;;9.90;92.80;;;;;;5030091;28;20037;-59
2023/01/06 06:51:18;;;;;;;15.18;12.75;;;9.90;92.80;;;;;;5032053;28;20377;-62
2023/01/06 06:53:45;;;;;;;14.75;13.30;;;9.90;92.80;;;;;;5043484;28;20057;-60
2023/01/06 06:56:15;;;;;;;15.65;13.75;;;9.90;92.90;;;;;;5028839;28;20064;-59
2023/01/06 06:58:42;;;;;;;17.67;12.93;;;9.80;93.10;;;;;;5033488;28;20485;-58
2023/01/06 07:01:12;;;;;;;16.23;13.23;;;9.90;93.10;;;;;;5031405;28;20053;-59
2023/01/06 07:03:39;;;;;;;23.67;15.35;;;9.80;93.20;;;;;;5044205;28;20466;-61
2023/01/06 07:06:08;;;;;;;14.77;13.27;;;9.80;93.20;;;;;;5038305;28;20375;-61
2023/01/06 07:08:36;;;;;;;15.15;13.57;;;9.80;93.20;;;;;;5025558;28;20447;-60
2023/01/06 07:11:03;;;;;;;14.63;13.15;;;9.80;93.40;;;;;;5028881;28;20064;-63
2023/01/06 07:13:30;;;;;;;14.10;12.70;;;9.70;93.40;;;;;;5032727;28;20029;-59
2023/01/06 07:15:57;;;;;;;14.00;12.63;;;9.80;93.50;;;;;;5032462;28;20030;-56
2023/01/06 07:18:24;;;;;;;17.65;12.52;;;9.70;93.60;;;;;;5034077;28;20562;-52
2023/01/06 07:20:54;;;;;;;14.93;12.50;;;9.70;93.70;;;;;;5031403;28;20041;-57
2023/01/06 07:23:22;;;;;;;13.18;11.82;;;9.70;93.80;;;;;;5033234;28;20510;-55
2023/01/06 07:25:52;;;;;;;15.73;11.60;;;9.70;93.90;;;;;;5030712;28;20450;-58
2023/01/06 07:28:19;;;;;;;13.95;11.23;;;9.70;93.90;;;;;;5030727;28;20025;-59
2023/01/06 07:30:46;;;;;;;14.38;12.73;;;9.70;93.90;;;;;;5032059;28;20047;-63
2023/01/06 07:33:13;;;;;;;15.40;13.25;;;9.70;94.00;;;;;;5028692;28;20036;-62
2023/01/06 07:35:39;;;;;;;13.57;12.23;;;9.70;94.00;;;;;;5033531;28;20021;-62
2023/01/06 07:38:07;;;;;;;13.77;11.07;;;9.70;94.00;;;;;;5032705;28;20466;-62
2023/01/06 07:40:36;;;;;;;15.15;12.05;;;9.70;94.10;;;;;;5030023;28;20033;-63
2023/01/06 07:43:20;;;;;;;14.38;11.85;;;9.60;94.20;;;;;;5030795;28;20033;-62
2023/01/06 07:45:47;;;;;;;13.40;12.00;;;9.60;94.30;;;;;;5027085;28;20040;-62
2023/01/06 07:48:14;;;;;;;13.95;11.70;;;9.60;94.30;;;;;;5034174;28;20343;-63
2023/01/06 07:50:43;;;;;;;16.25;11.85;;;9.70;94.40;;;;;;5030380;28;20053;-60
2023/01/06 07:53:12;;;;;;;11.77;10.55;;;9.60;94.40;;;;;;5032455;28;20033;-59
2023/01/06 07:55:39;;;;;;;13.38;10.30;;;9.60;94.50;;;;;;5026904;28;20443;-59
2023/01/06 07:58:07;;;;;;;12.70;10.52;;;9.60;94.50;;;;;;5031643;28;20447;-64
2023/01/06 08:00:35;;;;;;;12.18;10.30;;;9.60;94.50;;;;;;5028969;28;20128;-64
2023/01/06 08:03:07;;;;;;;14.20;9.75;;;9.70;94.60;;;;;;5020034;28;20049;-62
2023/01/06 08:05:40;;;;;;;11.85;10.02;;;9.70;94.50;;;;;;5028720;28;20025;-62
2023/01/06 08:08:10;;;;;;;10.63;9.18;;;9.60;94.50;;;;;;5031342;28;20037;-64
2023/01/06 08:10:41;;;;;;;8.93;8.00;;;9.70;94.60;;;;;;5023283;28;20053;-64
2023/01/06 08:13:08;;;;;;;10.55;9.45;;;9.70;94.60;;;;;;5047830;28;20095;-64
2023/01/06 08:15:41;;;;;;;11.55;9.35;;;9.80;94.60;;;;;;5029665;28;20037;-61
2023/01/06 08:18:08;;;;;;;8.88;7.57;;;9.80;94.50;;;;;;5033146;28;20049;-60
2023/01/06 08:20:35;;;;;;;12.45;8.98;;;9.80;94.60;;;;;;5031879;28;20059;-58
2023/01/06 08:23:02;;;;;;;8.20;7.40;;;9.70;94.50;;;;;;5049171;28;20470;-62
2023/01/06 08:25:31;;;;;;;9.02;7.50;;;9.70;94.60;;;;;;5028458;28;20119;-61
2023/01/06 08:27:59;;;;;;;8.55;7.03;;;9.70;94.70;;;;;;5025920;28;20021;-60
2023/01/06 08:30:25;;;;;;;9.48;7.45;;;9.70;94.70;;;;;;5030812;28;20037;-65
2023/01/06 08:32:56;;;;;;;8.27;6.43;;;9.70;94.70;;;;;;5022332;28;20124;-65
2023/01/06 08:35:23;;;;;;;9.02;6.90;;;9.70;94.80;;;;;;5030143;28;20099;-65
2023/01/06 08:37:50;;;;;;;10.88;6.40;;;9.70;94.80;;;;;;5031277;28;20029;-64
2023/01/06 08:40:23;;;;;;;11.50;7.20;;;9.70;94.80;;;;;;5027334;28;20072;-64
2023/01/06 08:42:50;;;;;;;7.88;7.05;;;9.70;94.80;;;;;;5036491;28;20459;-65
2023/01/06 08:45:17;;;;;;;9.20;7.80;;;9.60;94.90;;;;;;5033414;28;20477;-60
2023/01/06 08:47:44;;;;;;;13.00;7.90;;;9.60;95.00;;;;;;5022335;28;20448;-55
2023/01/06 08:50:11;;;;;;;11.32;6.18;;;9.60;95.00;;;;;;5025172;28;20538;-57
2023/01/06 08:52:38;;;;;;;8.98;5.70;;;9.70;95.00;;;;;;5029288;28;20455;-54
2023/01/06 08:55:04;;;;;;;5.57;3.58;;;9.60;94.90;;;;;;5029344;28;20025;-52
2023/01/06 08:57:30;;;;;;;9.82;3.83;;;9.60;94.80;;;;;;5027172;28;20029;-55
2023/01/06 08:59:57;;;;;;;4.45;2.42;;;9.50;94.70;;;;;;5025375;28;20513;-49
2023/01/06 09:02:26;;;;;;;5.82;1.85;;;9.40;94.40;;;;;;5028567;28;20045;-53
2023/01/06 09:04:52;;;;;;;7.57;1.98;;;9.40;94.30;;;;;;5032337;28;20503;-48
2023/01/06 09:07:19;;;;;;;6.38;1.75;;;9.30;94.10;;;;;;5030332;28;20173;-48
2023/01/06 09:09:46;;;;;;;3.30;1.27;;;9.20;93.80;;;;;;5028906;28;20112;-47
2023/01/06 09:12:13;;;;;;;9.00;2.35;;;9.00;93.50;;;;;;5030562;28;20030;-48
2023/01/06 09:14:42;;;;;;;6.88;1.38;;;8.90;93.40;;;;;;5028300;28;20037;-47
2023/01/06 09:17:08;;;;;;;5.18;1.75;;;8.80;93.40;;;;;;5028075;28;20100;-50
2023/01/06 09:19:35;;;;;;;8.35;1.45;;;8.80;93.50;;;;;;5029796;28;20443;-49
2023/01/06 09:22:02;;;;;;;9.45;2.03;;;8.80;93.20;;;;;;5033647;28;20033;-48
2023/01/06 09:24:28;;;;;;;14.27;2.90;;;8.80;93.00;;;;;;5034834;28;20340;-48
2023/01/06 09:26:55;;;;;;;10.75;2.47;;;8.70;93.00;;;;;;5031335;28;20522;-48
2023/01/06 09:29:23;;;;;;;13.45;2.70;;;8.80;93.00;;;;;;5033903;28;20029;-46
2023/01/06 09:31:50;;;;;;;11.20;1.52;;;8.80;92.90;;;;;;5031249;28;20431;-50
2023/01/06 09:34:17;;;;;;;6.10;1.20;;;8.80;92.90;;;;;;5035171;28;20040;-47
2023/01/06 09:36:44;;;;;;;4.95;1.17;;;8.90;93.00;;;;;;5030952;28;20022;-51
2023/01/06 09:39:11;;;;;;;4.57;1.00;;;8.80;92.80;;;;;;5031802;28;20072;-47
2023/01/06 09:42:03;;;;;;;9.10;1.77;;;8.80;92.80;;;;;;5022388;28;20526;-45
2023/01/06 09:44:56;;;;;;;13.68;3.00;;;8.80;92.80;;;;;;5029930;28;20376;-45
2023/01/06 09:47:30;;;;;;;9.02;2.38;;;8.80;92.80;;;;;;5012296;28;20056;-45
2023/01/06 09:50:29;;;;;;;9.18;1.90;;;8.90;92.90;;;;;;5033779;28;20051;-48
2023/01/06 09:53:01;;;;;;;11.80;2.83;;;8.90;92.80;;;;;;5030711;28;20398;-48
2023/01/06 09:55:45;;;;;;;15.52;3.97;;;8.90;92.80;;;;;;5024990;28;20056;-47
2023/01/06 09:58:17;;;;;;;10.18;1.95;;;8.90;92.60;;;;;;5031049;28;20113;-47
2023/01/06 10:01:07;;;;;;;10.60;2.42;;;9.00;92.40;;;;;;5026220;28;20037;-46
2023/01/06 10:03:33;;;;;;;10.48;2.60;;;9.00;92.00;;;;;;5034438;28;20022;-49
2023/01/06 10:06:43;;;;;;;11.90;2.10;;;9.00;91.80;;;;;;5033283;28;20037;-45
2023/01/06 10:09:49;;;;;;;12.68;2.05;;;9.00;91.70;;;;;;5034388;28;20371;-47
2023/01/06 10:12:48;;;;;;;11.90;2.65;;;9.00;91.40;;;;;;5032085;28;20478;-47
2023/01/06 10:15:42;;;;;;;13.40;3.78;;;9.00;91.30;;;;;;5034823;28;20027;-43
2023/01/06 10:18:20;;;;;;;10.43;2.15;;;9.00;91.10;;;;;;5032776;28;20491;-44
2023/01/06 10:21:01;;;;;;;8.05;2.75;;;8.90;91.30;;;;;;5046807;28;20146;-46
2023/01/06 10:23:48;;;;;;;14.15;2.42;;;8.90;91.40;;;;;;5065655;28;20049;-46
2023/01/06 10:26:24;;;;;;;13.93;2.97;;;8.90;91.30;;;;;;5033914;28;20037;-43
2023/01/06 10:28:53;;;;;;;9.07;2.08;;;8.80;91.20;;;;;;5028288;28;20026;-45
2023/01/06 10:31:29;;;;;;;12.50;2.25;;;8.90;91.20;;;;;;5032182;28;20470;-44
2023/01/06 10:33:57;;;;;;;7.32;2.00;;;8.80;91.30;;;;;;5034829;28;20075;-51
2023/01/06 10:36:44;;;;;;;12.15;3.20;;;8.90;91.20;;;;;;5033080;28;20029;-48
2023/01/06 10:39:24;;;;;;;11.48;1.70;;;8.80;91.00;;;;;;5031065;28;20030;-47
2023/01/06 10:44:58;;;;;;;13.17;2.87;;;8.80;90.80;;;;;;5033948;28;20041;-46
2023/01/06 10:47:29;;;;;;;12.50;2.17;;;8.90;90.80;;;;;;5035934;28;20029;-44
2023/01/06 10:49:56;;;;;;;9.20;1.77;;;8.90;90.60;;;;;;5048637;28;20447;-49
2023/01/06 10:52:25;;;;;;;13.00;3.13;;;8.80;90.60;;;;;;5031967;28;20040;-45
2023/01/06 10:54:57;;;;;;;7.90;1.67;;;8.80;90.50;;;;;;5033162;28;20033;-44
2023/01/06 10:57:31;;;;;;;12.32;2.25;;;8.80;90.40;;;;;;5032929;28;20044;-45
2023/01/06 11:00:14;;;;;;;7.70;1.15;;;8.90;90.30;;;;;;5030760;28;20619;-46
2023/01/06 11:02:52;;;;;;;8.05;1.58;;;8.90;90.20;;;;;;5018562;28;20384;-44
2023/01/06 11:05:27;;;;;;;5.88;1.60;;;8.80;89.90;;;;;;5022671;28;20487;-45
2023/01/06 11:08:13;;;;;;;8.35;2.85;;;8.90;89.60;;;;;;5025523;28;20033;-46
2023/01/06 11:10:54;;;;;;;6.50;1.67;;;8.90;89.50;;;;;;5062085;28;20111;-46
2023/01/06 11:13:33;;;;;;;7.68;1.95;;;8.90;89.50;;;;;;5031124;28;20025;-47
2023/01/06 11:16:04;;;;;;;14.75;1.95;;;8.90;89.20;;;;;;5064198;28;20079;-49
2023/01/06 11:18:38;;;;;;;6.95;1.40;;;8.90;89.40;;;;;;5037036;28;20111;-48
2023/01/06 11:21:13;;;;;;;14.35;2.55;;;8.90;89.40;;;;;;5030821;28;20033;-45
2023/01/06 11:23:42;;;;;;;8.43;1.30;;;8.90;89.40;;;;;;5060941;28;20026;-50
2023/01/06 11:26:27;;;;;;;9.90;2.00;;;9.00;89.40;;;;;;5029531;28;20029;-49
2023/01/06 11:28:54;;;;;;;10.23;1.73;;;9.00;88.90;;;;;;5030067;28;20204;-49
2023/01/06 11:31:29;;;;;;;8.93;2.75;;;9.00;88.60;;;;;;5033836;28;20068;-46
2023/01/06 11:34:00;;;;;;;11.50;2.75;;;9.00;88.80;;;;;;5034884;28;20109;-47
2023/01/06 11:36:31;;;;;;;10.98;2.55;;;9.10;88.70;;;;;;5029955;28;20025;-45
2023/01/06 11:39:30;;;;;;;12.38;2.40;;;9.20;88.80;;;;;;5062923;28;20037;-46
2023/01/06 11:42:11;;;;;;;8.35;1.45;;;9.40;88.80;;;;;;5033714;28;20112;-50
2023/01/06 11:44:40;;;;;;;11.73;2.08;;;9.40;88.00;;;;;;5031106;28;20044;-49
2023/01/06 11:47:25;;;;;;;8.68;1.55;;;9.50;88.00;;;;;;5029649;28;20132;-49
2023/01/06 11:50:17;;;;;;;10.43;2.97;;;9.50;87.70;;;;;;5030050;28;20033;-48
2023/01/06 11:53:01;;;;;;;7.40;1.25;;;9.50;87.50;;;;;;5031657;28;20064;-47
2023/01/06 11:55:29;;;;;;;6.93;2.38;;;9.50;87.30;;;;;;5039990;28;20068;-49
2023/01/06 11:58:20;;;;;;;9.48;2.17;;;9.50;87.20;;;;;;5045361;28;20028;-49
2023/01/06 12:00:58;;;;;;;7.90;1.83;;;9.50;87.50;;;;;;5025346;28;20046;-45
2023/01/06 12:03:40;;;;;;;5.60;1.35;;;9.50;86.70;;;;;;5021335;28;20045;-46
2023/01/06 12:06:20;;;;;;;8.63;2.10;;;9.40;86.60;;;;;;5027714;28;20068;-47
2023/01/06 12:09:08;;;;;;;10.20;1.52;;;9.40;86.60;;;;;;5043302;28;20029;-46
2023/01/06 12:11:51;;;;;;;10.52;1.73;;;9.40;86.70;;;;;;5062253;28;20079;-49
2023/01/06 12:14:37;;;;;;;12.15;2.03;;;9.40;86.40;;;;;;5022090;28;20467;-46
2023/01/06 12:17:22;;;;;;;10.43;2.13;;;9.30;86.70;;;;;;5027761;28;20513;-47
2023/01/06 12:20:04;;;;;;;9.75;2.28;;;9.30;86.60;;;;;;5029479;28;20065;-49
2023/01/06 12:22:39;;;;;;;10.73;2.00;;;9.20;86.70;;;;;;5028468;28;20083;-46
2023/01/06 12:25:36;;;;;;;9.63;1.75;;;9.20;86.80;;;;;;5030452;28;20568;-46
2023/01/06 12:28:04;;;;;;;7.68;2.05;;;9.20;87.10;;;;;;5030048;28;20033;-50
2023/01/06 12:30:56;;;;;;;12.35;3.05;;;9.20;87.00;;;;;;5031618;28;20029;-48
2023/01/06 12:33:40;;;;;;;17.85;4.22;;;9.20;87.00;;;;;;5018081;28;20060;-48
2023/01/06 12:36:17;;;;;;;15.30;4.20;;;9.20;86.90;;;;;;5019215;28;20043;-47
2023/01/06 12:39:12;;;;;;;10.18;2.97;;;9.20;86.90;;;;;;5033813;28;20028;-48
2023/01/06 12:41:52;;;;;;;10.27;2.65;;;9.30;86.70;;;;;;5033064;28;20102;-46
2023/01/06 12:44:48;;;;;;;11.18;2.28;;;9.40;86.10;;;;;;5026414;28;20029;-50
2023/01/06 12:47:55;;;;;;;11.20;1.58;;;9.50;85.90;;;;;;5018908;28;20101;-50
2023/01/06 12:50:39;;;;;;;8.20;2.08;;;9.60;85.70;;;;;;5026761;28;20063;-46
2023/01/06 12:53:25;;;;;;;7.85;1.88;;;9.70;85.00;;;;;;5028249;28;20036;-48
2023/01/06 12:56:13;;;;;;;4.43;1.65;;;9.70;84.70;;;;;;5045100;28;20040;-48
2023/01/06 12:59:11;;;;;;;6.88;2.08;;;9.70;84.40;;;;;;5064034;28;20611;-46
2023/01/06 13:02:21;;;;;;;6.80;1.60;;;9.70;84.40;;;;;;5030057;28;20382;-47
2023/01/06 13:04:56;;;;;;;9.95;1.58;;;9.70;84.70;;;;;;5030525;28;20116;-49
2023/01/06 13:07:46;;;;;;;9.02;2.00;;;9.70;85.00;;;;;;5031481;28;20045;-50
2023/01/06 13:10:22;;;;;;;13.98;2.80;;;9.80;84.10;;;;;;5030127;28;20044;-47
2023/01/06 13:13:23;;;;;;;9.38;2.17;;;9.90;84.40;;;;;;5029023;28;20025;-47
2023/01/06 13:15:55;;;;;;;9.88;2.38;;;10.00;85.00;;;;;;5028063;28;20021;-46
2023/01/06 13:18:30;;;;;;;12.13;3.03;;;10.00;83.90;;;;;;5026111;28;20030;-48
2023/01/06 13:21:16;;;;;;;12.32;2.50;;;10.00;83.20;;;;;;5011045;28;20095;-46
2023/01/06 13:24:34;;;;;;;8.93;2.13;;;10.00;83.70;;;;;;5012666;28;20022;-47
2023/01/06 13:27:34;;;;;;;5.95;2.40;;;9.90;83.70;;;;;;5014218;28;20033;-46
2023/01/06 13:30:23;;;;;;;8.05;2.03;;;9.90;83.80;;;;;;5030437;28;20364;-46